^^
Saratoga-Weather Station Historical Data
Daily Summary for March 26, 2020 Units:  Metric    English   Both
Daily Weekly Monthly Yearly Custom
  High: Low: Average:
Temperature: 1.8 °C -0.4 °C 0.8 °C
Dew Point: 0.7 °C -1.5 °C -0.2 °C
Humidity: 95% 90% 93%
Wind Speed: 9.7km/h 0km/h 1.8km/h
Wind Gust: 14.5km/h - -
Wind- - West
Pressure: 1026.8 hPa 1025.4 hPa -
Precipitation: 0.0 mm    
Historical Graphs
 
 
Tabular Data for March 26, 2020
Time Temperature Dew Point Pressure Wind Wind Speed Wind Gust Humidity Rainfall Rate (Hourly) solar
00:00 1.3 °C -0.2 °C 1025.7 hPa WSW 1.4 km/h 4.8 km/h 90% 0.0 mm 0 W/m2
00:05 1.3 °C -0.2 °C 1025.7 hPa West 1.4 km/h 3.2 km/h 90% 0.0 mm 0 W/m2
00:10 1.3 °C -0.2 °C 1025.7 hPa Calm   4.8 km/h 90% 0.0 mm 0 W/m2
00:15 1.2 °C -0.3 °C 1025.7 hPa Calm   3.2 km/h 90% 0.0 mm 0 W/m2
00:20 1.1 °C -0.4 °C 1025.7 hPa Calm   3.2 km/h 90% 0.0 mm 0 W/m2
00:25 0.9 °C -0.4 °C 1025.7 hPa Calm   4.8 km/h 91% 0.0 mm 0 W/m2
00:30 0.9 °C -0.4 °C 1025.7 hPa West 3.2 km/h 4.8 km/h 91% 0.0 mm 0 W/m2
00:35 1.1 °C -0.1 °C 1025.7 hPa West 3.2 km/h 4.8 km/h 92% 0.0 mm 0 W/m2
00:40 1.1 °C -0.2 °C 1025.4 hPa WSW 1.4 km/h 3.2 km/h 91% 0.0 mm 0 W/m2
00:45 1.1 °C -0.2 °C 1025.4 hPa West 1.4 km/h 4.8 km/h 91% 0.0 mm 0 W/m2
00:50 1.1 °C -0.1 °C 1025.4 hPa WSW 3.2 km/h 4.8 km/h 92% 0.0 mm 0 W/m2
00:55 1.1 °C -0.1 °C 1025.4 hPa Calm   4.8 km/h 92% 0.0 mm 0 W/m2
01:00 1.1 °C -0.2 °C 1025.4 hPa Calm     91% 0.0 mm 0 W/m2
01:05 0.9 °C -0.4 °C 1025.7 hPa Calm   4.8 km/h 91% 0.0 mm 0 W/m2
01:10 0.7 °C -0.6 °C 1025.7 hPa Calm     91% 0.0 mm 0 W/m2
01:15 0.6 °C -0.7 °C 1025.7 hPa Calm     91% 0.0 mm 0 W/m2
01:20 0.4 °C -0.9 °C 1025.7 hPa Calm     91% 0.0 mm 0 W/m2
01:25 0.2 °C -1.1 °C 1025.7 hPa West 1.4 km/h 3.2 km/h 91% 0.0 mm 0 W/m2
01:30 0 °C -1.3 °C 1025.7 hPa Calm     91% 0.0 mm 0 W/m2
01:35 -0.2 °C -1.5 °C 1025.7 hPa Calm   3.2 km/h 91% 0.0 mm 0 W/m2
01:40 -0.2 °C -1.3 °C 1025.7 hPa Calm   1.6 km/h 92% 0.0 mm 0 W/m2
01:46 -0.3 °C -1.4 °C 1025.7 hPa Calm     92% 0.0 mm 0 W/m2
01:51 -0.3 °C -1.3 °C 1026.1 hPa Calm   1.6 km/h 93% 0.0 mm 0 W/m2
01:56 -0.4 °C -1.4 °C 1026.1 hPa West 1.4 km/h 1.6 km/h 93% 0.0 mm 0 W/m2
02:01 -0.4 °C -1.4 °C 1026.1 hPa WNW 1.4 km/h 3.2 km/h 93% 0.0 mm 0 W/m2
02:06 -0.2 °C -1 °C 1026.1 hPa WNW 1.4 km/h 3.2 km/h 94% 0.0 mm 0 W/m2
02:11 -0.1 °C -0.9 °C 1025.7 hPa Calm   1.6 km/h 94% 0.0 mm 0 W/m2
02:16 -0.1 °C -0.9 °C 1026.1 hPa Calm     94% 0.0 mm 0 W/m2
02:21 -0.1 °C -0.9 °C 1026.1 hPa Calm   1.6 km/h 94% 0.0 mm 0 W/m2
02:26 -0.2 °C -1 °C 1026.1 hPa Calm   1.6 km/h 94% 0.0 mm 0 W/m2
02:31 -0.1 °C -0.9 °C 1026.1 hPa Calm   3.2 km/h 94% 0.0 mm 0 W/m2
02:36 0.1 °C -0.8 °C 1026.4 hPa WSW 6.4 km/h 11.3 km/h 94% 0.0 mm 0 W/m2
02:41 0.5 °C -0.2 °C 1026.4 hPa West 4.7 km/h 12.9 km/h 95% 0.0 mm 0 W/m2
02:46 1 °C 0.3 °C 1026.4 hPa West 3.2 km/h 14.5 km/h 95% 0.0 mm 0 W/m2
02:51 1.3 °C 0.4 °C 1026.4 hPa WSW 9.7 km/h 11.3 km/h 94% 0.0 mm 0 W/m2
02:56 1.5 °C 0.5 °C 1026.1 hPa West 4.7 km/h 14.5 km/h 93% 0.0 mm 0 W/m2
03:01 1.7 °C 0.5 °C 1026.4 hPa West 4.7 km/h 9.7 km/h 92% 0.0 mm 0 W/m2
03:06 1.7 °C 0.4 °C 1026.1 hPa West 6.4 km/h 9.7 km/h 91% 0.0 mm 0 W/m2
03:11 1.8 °C 0.5 °C 1026.1 hPa WNW 4.7 km/h 11.3 km/h 91% 0.0 mm 0 W/m2
03:16 1.8 °C 0.3 °C 1026.1 hPa WNW 6.4 km/h 11.3 km/h 90% 0.0 mm 0 W/m2
03:21 1.7 °C 0.2 °C 1026.4 hPa WSW 4.7 km/h 11.3 km/h 90% 0.0 mm 0 W/m2
03:26 1.5 °C 0 °C 1026.1 hPa WNW 4.7 km/h 8 km/h 90% 0.0 mm 0 W/m2
03:31 1.4 °C 0.1 °C 1026.4 hPa Calm   4.8 km/h 91% 0.0 mm 0 W/m2
03:36 1.3 °C 0 °C 1026.4 hPa WNW 3.2 km/h 6.4 km/h 91% 0.0 mm 0 W/m2
03:41 1.3 °C 0 °C 1026.4 hPa WSW 9.7 km/h 11.3 km/h 91% 0.0 mm 0 W/m2
03:46 1.2 °C -0.1 °C 1026.4 hPa WNW 3.2 km/h 9.7 km/h 91% 0.0 mm 0 W/m2
03:51 1.1 °C -0.2 °C 1026.4 hPa Calm     91% 0.0 mm 0 W/m2
03:56 1.1 °C -0.1 °C 1026.4 hPa NNW 3.2 km/h 4.8 km/h 92% 0.0 mm 0 W/m2
04:01 1.1 °C -0.1 °C 1026.1 hPa NW 1.4 km/h 3.2 km/h 92% 0.0 mm 0 W/m2
04:06 1 °C -0.2 °C 1026.1 hPa WNW 4.7 km/h 12.9 km/h 92% 0.0 mm 0 W/m2
04:11 1.1 °C -0.1 °C 1026.1 hPa WNW 3.2 km/h 4.8 km/h 92% 0.0 mm 0 W/m2
04:16 1.1 °C -0.1 °C 1026.1 hPa WNW 1.4 km/h 12.9 km/h 92% 0.0 mm 0 W/m2
04:21 1 °C -0.2 °C 1026.1 hPa NW 3.2 km/h 4.8 km/h 92% 0.0 mm 0 W/m2
04:26 0.9 °C -0.3 °C 1026.4 hPa NW 1.4 km/h 4.8 km/h 92% 0.0 mm 0 W/m2
04:31 0.8 °C -0.4 °C 1026.4 hPa West 3.2 km/h 6.4 km/h 92% 0.0 mm 0 W/m2
04:36 0.7 °C -0.5 °C 1026.4 hPa West 4.7 km/h 6.4 km/h 92% 0.0 mm 0 W/m2
04:41 0.6 °C -0.5 °C 1026.4 hPa West 6.4 km/h 6.4 km/h 92% 0.0 mm 0 W/m2
04:46 0.6 °C -0.4 °C 1026.4 hPa NW 3.2 km/h 6.4 km/h 93% 0.0 mm 0 W/m2
04:51 0.5 °C -0.5 °C 1026.4 hPa West 3.2 km/h 4.8 km/h 93% 0.0 mm 0 W/m2
04:56 0.5 °C -0.5 °C 1026.4 hPa Calm   1.6 km/h 93% 0.0 mm 0 W/m2
05:01 0.5 °C -0.5 °C 1026.1 hPa Calm   1.6 km/h 93% 0.0 mm 0 W/m2
05:06 0.4 °C -0.6 °C 1026.1 hPa Calm     93% 0.0 mm 0 W/m2
05:11 0.4 °C -0.6 °C 1026.1 hPa Calm     93% 0.0 mm 0 W/m2
05:16 0.4 °C -0.6 °C 1026.1 hPa Calm   1.6 km/h 93% 0.0 mm 0 W/m2
05:21 0.4 °C -0.6 °C 1026.1 hPa Calm   1.6 km/h 93% 0.0 mm 0 W/m2
05:26 0.5 °C -0.4 °C 1026.1 hPa Calm   3.2 km/h 94% 0.0 mm 0 W/m2
05:31 0.5 °C -0.4 °C 1026.1 hPa WNW 1.4 km/h 3.2 km/h 94% 0.0 mm 0 W/m2
05:36 0.6 °C -0.3 °C 1026.1 hPa Calm   1.6 km/h 94% 0.0 mm 0 W/m2
05:41 0.6 °C -0.3 °C 1026.1 hPa WNW 1.4 km/h 3.2 km/h 94% 0.0 mm 0 W/m2
05:46 0.6 °C -0.3 °C 1026.1 hPa WNW 1.4 km/h 3.2 km/h 94% 0.0 mm 0 W/m2
05:51 0.6 °C -0.3 °C 1026.1 hPa Calm     94% 0.0 mm 0 W/m2
05:56 0.6 °C -0.3 °C 1026.1 hPa Calm   3.2 km/h 94% 0.0 mm 0 W/m2
06:01 0.5 °C -0.5 °C 1026.1 hPa North 1.4 km/h 3.2 km/h 93% 0.0 mm 0 W/m2
06:06 0.4 °C -0.5 °C 1026.1 hPa Calm   1.6 km/h 94% 0.0 mm 0 W/m2
06:11 0.4 °C -0.5 °C 1026.1 hPa Calm     94% 0.0 mm 0 W/m2
06:16 0.4 °C -0.5 °C 1026.1 hPa Calm   1.6 km/h 94% 0.0 mm 0 W/m2
06:22 0.3 °C -0.6 °C 1026.1 hPa Calm   1.6 km/h 94% 0.0 mm 0 W/m2
06:27 0.3 °C -0.6 °C 1026.1 hPa NW 1.4 km/h 1.6 km/h 94% 0.0 mm 0 W/m2
06:32 0.4 °C -0.5 °C 1026.1 hPa NW 1.4 km/h 1.6 km/h 94% 0.0 mm 0 W/m2
06:37 0.4 °C -0.5 °C 1026.1 hPa Calm   3.2 km/h 94% 0.0 mm 0 W/m2
06:42 0.6 °C -0.3 °C 1026.1 hPa East 1.4 km/h 3.2 km/h 94% 0.0 mm 0 W/m2
06:47 0.6 °C -0.1 °C 1026.1 hPa Calm   1.6 km/h 95% 0.0 mm 0 W/m2
06:52 0.6 °C -0.1 °C 1026.1 hPa ESE 3.2 km/h 4.8 km/h 95% 0.0 mm 0 W/m2
06:57 0.7 °C 0 °C 1026.1 hPa Calm   1.6 km/h 95% 0.0 mm 0 W/m2
07:02 0.7 °C 0 °C 1026.1 hPa NNW 3.2 km/h 4.8 km/h 95% 0.0 mm 0 W/m2
07:07 0.7 °C 0 °C 1025.7 hPa Calm   1.6 km/h 95% 0.0 mm 0 W/m2
07:12 0.7 °C 0 °C 1026.1 hPa East 3.2 km/h 4.8 km/h 95% 0.0 mm 0 W/m2
07:17 0.7 °C 0 °C 1026.1 hPa Calm   1.6 km/h 95% 0.0 mm 0 W/m2
07:22 0.7 °C 0 °C 1026.1 hPa Calm   4.8 km/h 95% 0.0 mm 0 W/m2
07:27 0.7 °C 0 °C 1026.1 hPa Calm   3.2 km/h 95% 0.0 mm 0 W/m2
07:32 0.8 °C 0.1 °C 1026.1 hPa WSW 3.2 km/h 4.8 km/h 95% 0.0 mm 0 W/m2
07:37 0.8 °C 0.1 °C 1026.1 hPa SW 1.4 km/h 3.2 km/h 95% 0.0 mm 0 W/m2
07:42 0.8 °C 0.1 °C 1026.1 hPa Calm   6.4 km/h 95% 0.0 mm 0 W/m2
07:47 0.8 °C 0.1 °C 1026.1 hPa SE 1.4 km/h 4.8 km/h 95% 0.0 mm 0 W/m2
07:52 0.8 °C 0.1 °C 1026.1 hPa ESE 1.4 km/h 3.2 km/h 95% 0.0 mm 0 W/m2
07:57 0.8 °C 0.1 °C 1025.7 hPa ENE 4.7 km/h 4.8 km/h 95% 0.0 mm 0 W/m2
08:02 0.8 °C 0.1 °C 1026.1 hPa Calm   1.6 km/h 95% 0.0 mm 0 W/m2
08:07 0.8 °C 0.1 °C 1026.1 hPa Calm   3.2 km/h 95% 0.0 mm 0 W/m2
08:12 0.8 °C 0.1 °C 1026.1 hPa Calm     95% 0.0 mm 0 W/m2
08:17 0.8 °C 0.1 °C 1026.1 hPa Calm     95% 0.0 mm 0 W/m2
08:22 0.8 °C 0.1 °C 1026.1 hPa Calm     95% 0.0 mm 0 W/m2
08:27 0.8 °C 0.1 °C 1026.1 hPa West 1.4 km/h 3.2 km/h 95% 0.0 mm 0 W/m2
08:32 0.8 °C 0.1 °C 1026.1 hPa SW 1.4 km/h 1.6 km/h 95% 0.0 mm 0 W/m2
08:37 0.8 °C 0.1 °C 1026.1 hPa Calm   3.2 km/h 95% 0.0 mm 0 W/m2
08:42 0.8 °C 0.1 °C 1026.1 hPa West 3.2 km/h 4.8 km/h 95% 0.0 mm 0 W/m2
08:47 0.8 °C 0.1 °C 1026.1 hPa Calm     95% 0.0 mm 5 W/m2
08:52 0.9 °C 0.2 °C 1026.4 hPa ESE 3.2 km/h 3.2 km/h 95% 0.0 mm 7 W/m2
08:57 0.9 °C 0.2 °C 1026.1 hPa Calm   1.6 km/h 95% 0.0 mm 7 W/m2
09:02 0.9 °C 0.2 °C 1026.4 hPa Calm   1.6 km/h 95% 0.0 mm 9 W/m2
09:07 0.9 °C 0.2 °C 1026.1 hPa Calm     95% 0.0 mm 11 W/m2
09:12 1 °C 0.3 °C 1026.4 hPa ENE 1.4 km/h 1.6 km/h 95% 0.0 mm 11 W/m2
09:17 1 °C 0.3 °C 1026.1 hPa Calm   1.6 km/h 95% 0.0 mm 12 W/m2
09:22 1.1 °C 0.4 °C 1026.4 hPa WNW 4.7 km/h 4.8 km/h 95% 0.0 mm 14 W/m2
09:27 1.1 °C 0.4 °C 1026.4 hPa WNW 1.4 km/h 4.8 km/h 95% 0.0 mm 14 W/m2
09:32 1.2 °C 0.5 °C 1026.4 hPa NW 3.2 km/h 3.2 km/h 95% 0.0 mm 18 W/m2
09:37 1.2 °C 0.5 °C 1026.4 hPa WNW 3.2 km/h 6.4 km/h 95% 0.0 mm 16 W/m2
09:42 1.2 °C 0.5 °C 1026.4 hPa West 1.4 km/h 3.2 km/h 95% 0.0 mm 16 W/m2
09:47 1.3 °C 0.6 °C 1026.4 hPa Calm   3.2 km/h 95% 0.0 mm 18 W/m2
09:52 1.3 °C 0.6 °C 1026.8 hPa WNW 1.4 km/h 3.2 km/h 95% 0.0 mm 12 W/m2
09:57 1.4 °C 0.7 °C 1026.8 hPa WNW 3.2 km/h 4.8 km/h 95% 0.0 mm 16 W/m2
10:02 1.4 °C 0.7 °C 1026.8 hPa WNW 4.7 km/h 6.4 km/h 95% 0.0 mm 16 W/m2
10:07 1.4 °C 0.7 °C 1026.8 hPa West 3.2 km/h 8 km/h 95% 0.0 mm 18 W/m2
10:12 1.4 °C 0.7 °C 1026.8 hPa West 3.2 km/h 4.8 km/h 95% 0.0 mm 19 W/m2
10:17 1.4 °C 0.7 °C 1026.8 hPa West 4.7 km/h 8 km/h 95% 0.0 mm 23 W/m2
10:22 1.4 °C 0.7 °C 1026.8 hPa WNW 4.7 km/h 9.7 km/h 95% 0.0 mm 30 W/m2
10:27 1.4 °C 0.7 °C 1026.8 hPa WNW 4.7 km/h 9.7 km/h 95% 0.0 mm 26 W/m2
Juneau County Weather
Compliments of Weather Underground - 2 mb